sensor_id;sensor_type;location;lat;lon;timestamp;P1;durP1;ratioP1;P2;durP2;ratioP2
48853;SDS011;34673;52.808;17.856;2023-09-08T00:00:01;38.08;;;17.60;;
48853;SDS011;34673;52.808;17.856;2023-09-08T00:02:29;31.75;;;16.42;;
48853;SDS011;34673;52.808;17.856;2023-09-08T00:04:57;27.30;;;16.65;;
48853;SDS011;34673;52.808;17.856;2023-09-08T00:07:24;28.35;;;17.55;;
48853;SDS011;34673;52.808;17.856;2023-09-08T00:09:51;25.45;;;14.77;;
48853;SDS011;34673;52.808;17.856;2023-09-08T00:12:18;28.23;;;15.85;;
48853;SDS011;34673;52.808;17.856;2023-09-08T00:14:46;30.13;;;18.42;;
48853;SDS011;34673;52.808;17.856;2023-09-08T00:17:13;31.90;;;20.27;;
48853;SDS011;34673;52.808;17.856;2023-09-08T00:19:40;33.28;;;20.60;;
48853;SDS011;34673;52.808;17.856;2023-09-08T00:22:08;32.72;;;20.88;;
48853;SDS011;34673;52.808;17.856;2023-09-08T00:24:35;40.50;;;23.67;;
48853;SDS011;34673;52.808;17.856;2023-09-08T00:27:02;36.85;;;23.10;;
48853;SDS011;34673;52.808;17.856;2023-09-08T00:29:29;37.05;;;22.27;;
48853;SDS011;34673;52.808;17.856;2023-09-08T00:31:57;35.42;;;20.75;;
48853;SDS011;34673;52.808;17.856;2023-09-08T00:34:24;35.97;;;21.30;;
48853;SDS011;34673;52.808;17.856;2023-09-08T00:36:51;34.03;;;19.00;;
48853;SDS011;34673;52.808;17.856;2023-09-08T00:39:18;30.77;;;18.17;;
48853;SDS011;34673;52.808;17.856;2023-09-08T00:41:46;29.88;;;19.88;;
48853;SDS011;34673;52.808;17.856;2023-09-08T00:44:13;35.97;;;19.70;;
48853;SDS011;34673;52.808;17.856;2023-09-08T00:46:40;29.58;;;19.08;;
48853;SDS011;34673;52.808;17.856;2023-09-08T00:49:07;30.33;;;18.33;;
48853;SDS011;34673;52.808;17.856;2023-09-08T00:51:36;28.13;;;16.58;;
48853;SDS011;34673;52.808;17.856;2023-09-08T00:54:05;27.00;;;15.75;;
48853;SDS011;34673;52.808;17.856;2023-09-08T00:56:34;25.67;;;15.70;;
48853;SDS011;34673;52.808;17.856;2023-09-08T00:59:03;29.27;;;17.27;;
48853;SDS011;34673;52.808;17.856;2023-09-08T01:01:31;25.02;;;16.67;;
48853;SDS011;34673;52.808;17.856;2023-09-08T01:03:58;29.80;;;15.93;;
48853;SDS011;34673;52.808;17.856;2023-09-08T01:06:26;23.80;;;15.60;;
48853;SDS011;34673;52.808;17.856;2023-09-08T01:08:54;29.17;;;16.13;;
48853;SDS011;34673;52.808;17.856;2023-09-08T01:11:23;27.92;;;15.48;;
48853;SDS011;34673;52.808;17.856;2023-09-08T01:13:50;28.70;;;15.73;;
48853;SDS011;34673;52.808;17.856;2023-09-08T01:16:17;25.67;;;14.93;;
48853;SDS011;34673;52.808;17.856;2023-09-08T01:18:45;29.88;;;15.75;;
48853;SDS011;34673;52.808;17.856;2023-09-08T01:26:45;26.02;;;13.68;;
48853;SDS011;34673;52.808;17.856;2023-09-08T01:29:13;27.40;;;15.10;;
48853;SDS011;34673;52.808;17.856;2023-09-08T01:31:42;20.40;;;14.10;;
48853;SDS011;34673;52.808;17.856;2023-09-08T01:34:09;26.65;;;14.45;;
48853;SDS011;34673;52.808;17.856;2023-09-08T01:36:37;24.95;;;14.15;;
48853;SDS011;34673;52.808;17.856;2023-09-08T01:39:05;26.00;;;14.88;;
48853;SDS011;34673;52.808;17.856;2023-09-08T01:41:32;25.95;;;14.73;;
48853;SDS011;34673;52.808;17.856;2023-09-08T01:44:00;25.60;;;14.60;;
48853;SDS011;34673;52.808;17.856;2023-09-08T01:46:33;24.55;;;14.88;;
48853;SDS011;34673;52.808;17.856;2023-09-08T01:49:01;23.85;;;13.98;;
48853;SDS011;34673;52.808;17.856;2023-09-08T01:51:28;19.65;;;12.35;;
48853;SDS011;34673;52.808;17.856;2023-09-08T01:53:55;22.27;;;13.93;;
48853;SDS011;34673;52.808;17.856;2023-09-08T01:56:22;20.17;;;13.85;;
48853;SDS011;34673;52.808;17.856;2023-09-08T01:58:50;18.55;;;12.88;;
48853;SDS011;34673;52.808;17.856;2023-09-08T02:01:17;19.70;;;13.23;;
48853;SDS011;34673;52.808;17.856;2023-09-08T02:03:44;22.13;;;13.82;;
48853;SDS011;34673;52.808;17.856;2023-09-08T02:06:11;20.10;;;12.77;;
48853;SDS011;34673;52.808;17.856;2023-09-08T02:08:38;18.48;;;12.77;;
48853;SDS011;34673;52.808;17.856;2023-09-08T02:11:05;17.15;;;12.70;;
48853;SDS011;34673;52.808;17.856;2023-09-08T02:13:33;23.60;;;13.70;;
48853;SDS011;34673;52.808;17.856;2023-09-08T02:16:00;20.33;;;13.57;;
48853;SDS011;34673;52.808;17.856;2023-09-08T02:18:27;18.85;;;12.10;;
48853;SDS011;34673;52.808;17.856;2023-09-08T02:20:55;23.00;;;13.40;;
48853;SDS011;34673;52.808;17.856;2023-09-08T02:23:22;18.27;;;13.05;;
48853;SDS011;34673;52.808;17.856;2023-09-08T02:25:49;20.73;;;12.25;;
48853;SDS011;34673;52.808;17.856;2023-09-08T02:28:16;16.67;;;11.50;;
48853;SDS011;34673;52.808;17.856;2023-09-08T02:30:44;16.63;;;11.77;;
48853;SDS011;34673;52.808;17.856;2023-09-08T02:33:11;14.13;;;11.38;;
48853;SDS011;34673;52.808;17.856;2023-09-08T02:35:38;14.75;;;11.20;;
48853;SDS011;34673;52.808;17.856;2023-09-08T02:38:06;15.25;;;10.90;;
48853;SDS011;34673;52.808;17.856;2023-09-08T02:40:34;15.88;;;12.15;;
48853;SDS011;34673;52.808;17.856;2023-09-08T02:43:03;16.58;;;11.23;;
48853;SDS011;34673;52.808;17.856;2023-09-08T02:45:31;16.45;;;12.05;;
48853;SDS011;34673;52.808;17.856;2023-09-08T02:48:02;22.38;;;11.82;;
48853;SDS011;34673;52.808;17.856;2023-09-08T02:50:29;17.27;;;10.70;;
48853;SDS011;34673;52.808;17.856;2023-09-08T02:52:56;14.27;;;10.48;;
48853;SDS011;34673;52.808;17.856;2023-09-08T02:55:23;13.57;;;10.45;;
48853;SDS011;34673;52.808;17.856;2023-09-08T02:57:51;13.57;;;10.18;;
48853;SDS011;34673;52.808;17.856;2023-09-08T03:00:18;13.85;;;9.55;;
48853;SDS011;34673;52.808;17.856;2023-09-08T03:02:46;17.20;;;10.43;;
48853;SDS011;34673;52.808;17.856;2023-09-08T03:05:13;16.25;;;10.63;;
48853;SDS011;34673;52.808;17.856;2023-09-08T03:07:40;16.02;;;10.73;;
48853;SDS011;34673;52.808;17.856;2023-09-08T03:10:08;14.80;;;11.32;;
48853;SDS011;34673;52.808;17.856;2023-09-08T03:12:36;10.70;;;9.07;;
48853;SDS011;34673;52.808;17.856;2023-09-08T03:15:07;13.00;;;10.75;;
48853;SDS011;34673;52.808;17.856;2023-09-08T03:17:34;13.35;;;10.55;;
48853;SDS011;34673;52.808;17.856;2023-09-08T03:20:01;14.13;;;9.73;;
48853;SDS011;34673;52.808;17.856;2023-09-08T03:22:32;16.58;;;10.05;;
48853;SDS011;34673;52.808;17.856;2023-09-08T03:24:59;14.52;;;10.60;;
48853;SDS011;34673;52.808;17.856;2023-09-08T03:27:26;13.98;;;9.88;;
48853;SDS011;34673;52.808;17.856;2023-09-08T03:29:53;15.45;;;10.70;;
48853;SDS011;34673;52.808;17.856;2023-09-08T03:32:21;14.85;;;10.25;;
48853;SDS011;34673;52.808;17.856;2023-09-08T03:34:49;15.00;;;10.55;;
48853;SDS011;34673;52.808;17.856;2023-09-08T03:37:17;16.27;;;10.35;;
48853;SDS011;34673;52.808;17.856;2023-09-08T03:39:44;12.88;;;10.07;;
48853;SDS011;34673;52.808;17.856;2023-09-08T03:42:11;15.27;;;11.38;;
48853;SDS011;34673;52.808;17.856;2023-09-08T03:44:39;15.32;;;10.25;;
48853;SDS011;34673;52.808;17.856;2023-09-08T03:47:06;13.63;;;9.32;;
48853;SDS011;34673;52.808;17.856;2023-09-08T03:49:34;12.27;;;9.45;;
48853;SDS011;34673;52.808;17.856;2023-09-08T03:52:02;11.82;;;9.00;;
48853;SDS011;34673;52.808;17.856;2023-09-08T03:54:29;13.38;;;9.98;;
48853;SDS011;34673;52.808;17.856;2023-09-08T03:56:57;15.75;;;10.77;;
48853;SDS011;34673;52.808;17.856;2023-09-08T03:59:24;14.23;;;10.40;;
48853;SDS011;34673;52.808;17.856;2023-09-08T04:01:51;14.77;;;10.23;;
48853;SDS011;34673;52.808;17.856;2023-09-08T04:04:18;12.73;;;9.98;;
48853;SDS011;34673;52.808;17.856;2023-09-08T04:06:47;15.52;;;11.70;;
48853;SDS011;34673;52.808;17.856;2023-09-08T04:09:14;15.15;;;11.25;;
48853;SDS011;34673;52.808;17.856;2023-09-08T04:11:41;15.38;;;11.23;;
48853;SDS011;34673;52.808;17.856;2023-09-08T04:14:09;16.95;;;10.70;;
48853;SDS011;34673;52.808;17.856;2023-09-08T04:16:36;15.13;;;11.82;;
48853;SDS011;34673;52.808;17.856;2023-09-08T04:19:03;16.20;;;11.95;;
48853;SDS011;34673;52.808;17.856;2023-09-08T04:21:30;14.48;;;11.95;;
48853;SDS011;34673;52.808;17.856;2023-09-08T04:23:57;17.30;;;11.43;;
48853;SDS011;34673;52.808;17.856;2023-09-08T04:26:25;16.80;;;12.02;;
48853;SDS011;34673;52.808;17.856;2023-09-08T04:28:52;16.05;;;12.38;;
48853;SDS011;34673;52.808;17.856;2023-09-08T04:31:19;18.17;;;12.13;;
48853;SDS011;34673;52.808;17.856;2023-09-08T04:33:49;15.63;;;11.13;;
48853;SDS011;34673;52.808;17.856;2023-09-08T04:36:16;15.65;;;11.50;;
48853;SDS011;34673;52.808;17.856;2023-09-08T04:38:43;15.32;;;12.45;;
48853;SDS011;34673;52.808;17.856;2023-09-08T04:41:11;16.48;;;11.30;;
48853;SDS011;34673;52.808;17.856;2023-09-08T04:43:38;13.95;;;12.18;;
48853;SDS011;34673;52.808;17.856;2023-09-08T04:46:05;16.83;;;10.57;;
48853;SDS011;34673;52.808;17.856;2023-09-08T04:48:33;12.38;;;10.23;;
48853;SDS011;34673;52.808;17.856;2023-09-08T04:51:00;15.15;;;12.02;;
48853;SDS011;34673;52.808;17.856;2023-09-08T04:53:28;14.98;;;11.82;;
48853;SDS011;34673;52.808;17.856;2023-09-08T04:55:56;13.32;;;10.00;;
48853;SDS011;34673;52.808;17.856;2023-09-08T04:58:23;13.43;;;10.52;;
48853;SDS011;34673;52.808;17.856;2023-09-08T05:00:50;14.07;;;11.43;;
48853;SDS011;34673;52.808;17.856;2023-09-08T05:03:18;13.75;;;10.82;;
48853;SDS011;34673;52.808;17.856;2023-09-08T05:05:46;15.57;;;11.95;;
48853;SDS011;34673;52.808;17.856;2023-09-08T05:08:13;14.52;;;10.65;;
48853;SDS011;34673;52.808;17.856;2023-09-08T05:10:41;15.75;;;10.52;;
48853;SDS011;34673;52.808;17.856;2023-09-08T05:13:11;16.35;;;10.98;;
48853;SDS011;34673;52.808;17.856;2023-09-08T05:15:56;13.57;;;11.25;;
48853;SDS011;34673;52.808;17.856;2023-09-08T05:18:30;13.90;;;10.82;;
48853;SDS011;34673;52.808;17.856;2023-09-08T05:20:58;17.73;;;12.07;;
48853;SDS011;34673;52.808;17.856;2023-09-08T05:23:25;12.65;;;10.00;;
48853;SDS011;34673;52.808;17.856;2023-09-08T05:25:53;14.45;;;10.95;;
48853;SDS011;34673;52.808;17.856;2023-09-08T05:28:20;12.18;;;9.65;;
48853;SDS011;34673;52.808;17.856;2023-09-08T05:30:50;12.98;;;10.65;;
48853;SDS011;34673;52.808;17.856;2023-09-08T05:33:18;17.92;;;11.20;;
48853;SDS011;34673;52.808;17.856;2023-09-08T05:35:46;18.55;;;11.52;;
48853;SDS011;34673;52.808;17.856;2023-09-08T05:38:14;19.95;;;11.45;;
48853;SDS011;34673;52.808;17.856;2023-09-08T05:40:42;17.75;;;10.70;;
48853;SDS011;34673;52.808;17.856;2023-09-08T05:43:10;21.60;;;10.50;;
48853;SDS011;34673;52.808;17.856;2023-09-08T05:45:37;19.63;;;11.75;;
48853;SDS011;34673;52.808;17.856;2023-09-08T05:48:05;14.18;;;11.32;;
48853;SDS011;34673;52.808;17.856;2023-09-08T05:50:32;14.75;;;11.48;;
48853;SDS011;34673;52.808;17.856;2023-09-08T05:53:00;15.52;;;11.63;;
48853;SDS011;34673;52.808;17.856;2023-09-08T05:55:27;17.33;;;10.70;;
48853;SDS011;34673;52.808;17.856;2023-09-08T05:57:54;19.27;;;12.02;;
48853;SDS011;34673;52.808;17.856;2023-09-08T06:00:22;15.45;;;11.23;;
48853;SDS011;34673;52.808;17.856;2023-09-08T06:02:51;13.77;;;9.73;;
48853;SDS011;34673;52.808;17.856;2023-09-08T06:05:19;14.52;;;11.45;;
48853;SDS011;34673;52.808;17.856;2023-09-08T06:07:47;16.83;;;10.95;;
48853;SDS011;34673;52.808;17.856;2023-09-08T06:10:33;17.50;;;12.30;;
48853;SDS011;34673;52.808;17.856;2023-09-08T06:13:01;20.20;;;13.43;;
48853;SDS011;34673;52.808;17.856;2023-09-08T06:15:29;18.10;;;13.30;;
48853;SDS011;34673;52.808;17.856;2023-09-08T06:17:56;18.80;;;12.65;;
48853;SDS011;34673;52.808;17.856;2023-09-08T06:20:23;18.05;;;12.18;;
48853;SDS011;34673;52.808;17.856;2023-09-08T06:22:52;16.48;;;12.23;;
48853;SDS011;34673;52.808;17.856;2023-09-08T06:25:19;17.58;;;12.38;;
48853;SDS011;34673;52.808;17.856;2023-09-08T06:27:47;17.75;;;11.27;;
48853;SDS011;34673;52.808;17.856;2023-09-08T06:30:14;19.38;;;11.75;;
48853;SDS011;34673;52.808;17.856;2023-09-08T06:32:43;15.43;;;11.13;;
48853;SDS011;34673;52.808;17.856;2023-09-08T06:35:11;14.15;;;10.60;;
48853;SDS011;34673;52.808;17.856;2023-09-08T06:37:39;15.75;;;10.82;;
48853;SDS011;34673;52.808;17.856;2023-09-08T06:40:07;13.10;;;10.48;;
48853;SDS011;34673;52.808;17.856;2023-09-08T06:42:35;16.42;;;10.68;;
48853;SDS011;34673;52.808;17.856;2023-09-08T06:45:15;14.68;;;9.43;;
48853;SDS011;34673;52.808;17.856;2023-09-08T06:47:45;12.02;;;8.32;;
48853;SDS011;34673;52.808;17.856;2023-09-08T06:50:12;13.65;;;8.48;;
48853;SDS011;34673;52.808;17.856;2023-09-08T06:52:40;13.38;;;7.75;;
48853;SDS011;34673;52.808;17.856;2023-09-08T06:55:07;11.88;;;8.02;;
48853;SDS011;34673;52.808;17.856;2023-09-08T06:57:36;11.73;;;8.95;;
48853;SDS011;34673;52.808;17.856;2023-09-08T07:00:04;13.13;;;8.82;;
48853;SDS011;34673;52.808;17.856;2023-09-08T07:02:36;11.93;;;8.35;;
48853;SDS011;34673;52.808;17.856;2023-09-08T07:05:03;12.65;;;8.73;;
48853;SDS011;34673;52.808;17.856;2023-09-08T07:07:35;12.32;;;8.52;;
48853;SDS011;34673;52.808;17.856;2023-09-08T07:10:04;12.82;;;8.52;;
48853;SDS011;34673;52.808;17.856;2023-09-08T07:12:32;15.05;;;9.38;;
48853;SDS011;34673;52.808;17.856;2023-09-08T07:15:00;13.48;;;8.85;;
48853;SDS011;34673;52.808;17.856;2023-09-08T07:17:28;12.95;;;8.50;;
48853;SDS011;34673;52.808;17.856;2023-09-08T07:19:55;12.10;;;9.13;;
48853;SDS011;34673;52.808;17.856;2023-09-08T07:22:23;14.32;;;9.30;;
48853;SDS011;34673;52.808;17.856;2023-09-08T07:24:50;13.38;;;9.52;;
48853;SDS011;34673;52.808;17.856;2023-09-08T07:27:17;11.50;;;8.40;;
48853;SDS011;34673;52.808;17.856;2023-09-08T07:29:46;11.88;;;7.65;;
48853;SDS011;34673;52.808;17.856;2023-09-08T07:32:15;11.18;;;7.63;;
48853;SDS011;34673;52.808;17.856;2023-09-08T07:34:43;12.85;;;7.70;;
48853;SDS011;34673;52.808;17.856;2023-09-08T07:37:10;12.38;;;7.97;;
48853;SDS011;34673;52.808;17.856;2023-09-08T07:39:37;10.88;;;7.40;;
48853;SDS011;34673;52.808;17.856;2023-09-08T07:42:04;9.57;;;7.25;;
48853;SDS011;34673;52.808;17.856;2023-09-08T07:44:32;10.98;;;7.18;;
48853;SDS011;34673;52.808;17.856;2023-09-08T07:46:59;11.43;;;7.63;;
48853;SDS011;34673;52.808;17.856;2023-09-08T07:49:26;11.07;;;7.35;;
48853;SDS011;34673;52.808;17.856;2023-09-08T07:51:54;11.23;;;6.90;;
48853;SDS011;34673;52.808;17.856;2023-09-08T07:54:21;11.15;;;7.22;;
48853;SDS011;34673;52.808;17.856;2023-09-08T07:56:48;12.27;;;7.07;;
48853;SDS011;34673;52.808;17.856;2023-09-08T07:59:15;13.20;;;6.22;;
48853;SDS011;34673;52.808;17.856;2023-09-08T08:01:42;9.57;;;6.40;;
48853;SDS011;34673;52.808;17.856;2023-09-08T08:04:10;9.43;;;5.63;;
48853;SDS011;34673;52.808;17.856;2023-09-08T08:06:37;11.05;;;6.10;;
48853;SDS011;34673;52.808;17.856;2023-09-08T08:09:05;10.32;;;5.30;;
48853;SDS011;34673;52.808;17.856;2023-09-08T08:11:32;7.22;;;5.28;;
48853;SDS011;34673;52.808;17.856;2023-09-08T08:13:59;7.90;;;4.97;;
48853;SDS011;34673;52.808;17.856;2023-09-08T08:16:27;7.32;;;4.57;;
48853;SDS011;34673;52.808;17.856;2023-09-08T08:18:55;8.98;;;4.63;;
48853;SDS011;34673;52.808;17.856;2023-09-08T08:21:22;11.85;;;4.57;;
48853;SDS011;34673;52.808;17.856;2023-09-08T08:23:50;8.40;;;4.65;;
48853;SDS011;34673;52.808;17.856;2023-09-08T08:26:17;8.20;;;4.53;;
48853;SDS011;34673;52.808;17.856;2023-09-08T08:28:45;9.23;;;4.78;;
48853;SDS011;34673;52.808;17.856;2023-09-08T08:31:12;7.40;;;4.00;;
48853;SDS011;34673;52.808;17.856;2023-09-08T08:33:40;9.13;;;4.25;;
48853;SDS011;34673;52.808;17.856;2023-09-08T08:36:07;7.78;;;4.53;;
48853;SDS011;34673;52.808;17.856;2023-09-08T08:38:36;9.55;;;4.97;;
48853;SDS011;34673;52.808;17.856;2023-09-08T08:41:03;8.15;;;3.83;;
48853;SDS011;34673;52.808;17.856;2023-09-08T08:43:31;4.70;;;3.60;;
48853;SDS011;34673;52.808;17.856;2023-09-08T08:45:59;6.10;;;4.22;;
48853;SDS011;34673;52.808;17.856;2023-09-08T08:48:29;5.88;;;3.85;;
48853;SDS011;34673;52.808;17.856;2023-09-08T08:50:57;7.57;;;3.80;;
48853;SDS011;34673;52.808;17.856;2023-09-08T08:53:25;7.00;;;3.45;;
48853;SDS011;34673;52.808;17.856;2023-09-08T08:55:54;7.95;;;3.80;;
48853;SDS011;34673;52.808;17.856;2023-09-08T08:58:23;5.72;;;3.72;;
48853;SDS011;34673;52.808;17.856;2023-09-08T09:00:53;6.32;;;3.47;;
48853;SDS011;34673;52.808;17.856;2023-09-08T09:05:56;6.47;;;3.78;;
48853;SDS011;34673;52.808;17.856;2023-09-08T09:08:24;4.50;;;3.13;;
48853;SDS011;34673;52.808;17.856;2023-09-08T09:10:51;7.03;;;2.97;;
48853;SDS011;34673;52.808;17.856;2023-09-08T09:13:19;10.70;;;3.58;;
48853;SDS011;34673;52.808;17.856;2023-09-08T09:15:48;5.97;;;3.33;;
48853;SDS011;34673;52.808;17.856;2023-09-08T09:18:16;9.13;;;3.70;;
48853;SDS011;34673;52.808;17.856;2023-09-08T09:20:52;5.25;;;3.67;;
48853;SDS011;34673;52.808;17.856;2023-09-08T09:23:28;5.85;;;3.20;;
48853;SDS011;34673;52.808;17.856;2023-09-08T09:26:02;5.28;;;3.25;;
48853;SDS011;34673;52.808;17.856;2023-09-08T09:28:32;6.85;;;3.55;;
48853;SDS011;34673;52.808;17.856;2023-09-08T09:31:00;7.88;;;3.50;;
48853;SDS011;34673;52.808;17.856;2023-09-08T09:33:28;8.45;;;3.75;;
48853;SDS011;34673;52.808;17.856;2023-09-08T09:35:57;5.25;;;3.20;;
48853;SDS011;34673;52.808;17.856;2023-09-08T09:38:25;5.35;;;3.20;;
48853;SDS011;34673;52.808;17.856;2023-09-08T09:40:53;6.47;;;3.10;;
48853;SDS011;34673;52.808;17.856;2023-09-08T09:43:22;4.97;;;2.70;;
48853;SDS011;34673;52.808;17.856;2023-09-08T09:48:20;6.85;;;2.83;;
48853;SDS011;34673;52.808;17.856;2023-09-08T09:50:50;5.05;;;3.00;;
48853;SDS011;34673;52.808;17.856;2023-09-08T09:53:17;5.05;;;2.90;;
48853;SDS011;34673;52.808;17.856;2023-09-08T09:55:45;4.47;;;2.88;;
48853;SDS011;34673;52.808;17.856;2023-09-08T09:58:13;5.25;;;2.92;;
48853;SDS011;34673;52.808;17.856;2023-09-08T10:00:41;5.45;;;2.90;;
48853;SDS011;34673;52.808;17.856;2023-09-08T10:03:14;4.68;;;2.90;;
48853;SDS011;34673;52.808;17.856;2023-09-08T10:05:42;4.68;;;3.05;;
48853;SDS011;34673;52.808;17.856;2023-09-08T10:08:10;4.28;;;2.53;;
48853;SDS011;34673;52.808;17.856;2023-09-08T10:10:37;4.15;;;2.95;;
48853;SDS011;34673;52.808;17.856;2023-09-08T10:13:06;7.07;;;3.20;;
48853;SDS011;34673;52.808;17.856;2023-09-08T10:15:34;7.15;;;3.25;;
48853;SDS011;34673;52.808;17.856;2023-09-08T10:18:04;5.25;;;3.00;;
48853;SDS011;34673;52.808;17.856;2023-09-08T10:20:33;4.30;;;2.90;;
48853;SDS011;34673;52.808;17.856;2023-09-08T10:23:11;5.97;;;2.70;;
48853;SDS011;34673;52.808;17.856;2023-09-08T10:25:43;5.80;;;3.00;;
48853;SDS011;34673;52.808;17.856;2023-09-08T10:30:39;3.85;;;2.70;;
48853;SDS011;34673;52.808;17.856;2023-09-08T10:33:08;6.50;;;2.95;;
48853;SDS011;34673;52.808;17.856;2023-09-08T10:35:37;4.50;;;3.00;;
48853;SDS011;34673;52.808;17.856;2023-09-08T10:41:40;4.38;;;2.70;;
48853;SDS011;34673;52.808;17.856;2023-09-08T10:43:46;8.55;;;3.35;;
48853;SDS011;34673;52.808;17.856;2023-09-08T10:46:21;7.50;;;3.00;;
48853;SDS011;34673;52.808;17.856;2023-09-08T10:48:50;4.63;;;2.70;;
48853;SDS011;34673;52.808;17.856;2023-09-08T10:51:21;6.22;;;3.58;;
48853;SDS011;34673;52.808;17.856;2023-09-08T10:53:51;6.63;;;3.05;;
48853;SDS011;34673;52.808;17.856;2023-09-08T10:56:18;7.18;;;3.10;;
48853;SDS011;34673;52.808;17.856;2023-09-08T10:58:49;4.75;;;2.72;;
48853;SDS011;34673;52.808;17.856;2023-09-08T11:01:20;3.67;;;2.75;;
48853;SDS011;34673;52.808;17.856;2023-09-08T11:03:53;7.22;;;3.00;;
48853;SDS011;34673;52.808;17.856;2023-09-08T11:06:21;5.20;;;3.30;;
48853;SDS011;34673;52.808;17.856;2023-09-08T11:08:49;4.65;;;2.85;;
48853;SDS011;34673;52.808;17.856;2023-09-08T11:11:20;6.05;;;3.30;;
48853;SDS011;34673;52.808;17.856;2023-09-08T11:13:47;5.32;;;2.85;;
48853;SDS011;34673;52.808;17.856;2023-09-08T11:16:14;5.43;;;3.22;;
48853;SDS011;34673;52.808;17.856;2023-09-08T11:18:42;4.82;;;2.63;;
48853;SDS011;34673;52.808;17.856;2023-09-08T11:21:10;5.50;;;2.65;;
48853;SDS011;34673;52.808;17.856;2023-09-08T11:23:38;5.13;;;3.25;;
48853;SDS011;34673;52.808;17.856;2023-09-08T11:26:05;5.57;;;2.90;;
48853;SDS011;34673;52.808;17.856;2023-09-08T11:28:33;6.30;;;2.92;;
48853;SDS011;34673;52.808;17.856;2023-09-08T11:31:01;8.13;;;3.17;;
48853;SDS011;34673;52.808;17.856;2023-09-08T11:33:33;7.25;;;3.03;;
48853;SDS011;34673;52.808;17.856;2023-09-08T11:36:01;6.10;;;3.00;;
48853;SDS011;34673;52.808;17.856;2023-09-08T11:38:28;7.68;;;3.30;;
48853;SDS011;34673;52.808;17.856;2023-09-08T11:40:57;8.98;;;3.33;;
48853;SDS011;34673;52.808;17.856;2023-09-08T11:43:25;6.00;;;3.30;;
48853;SDS011;34673;52.808;17.856;2023-09-08T11:45:54;6.25;;;3.00;;
48853;SDS011;34673;52.808;17.856;2023-09-08T11:48:23;5.15;;;3.13;;
48853;SDS011;34673;52.808;17.856;2023-09-08T11:50:54;6.68;;;3.17;;
48853;SDS011;34673;52.808;17.856;2023-09-08T11:53:22;4.45;;;3.05;;
48853;SDS011;34673;52.808;17.856;2023-09-08T11:55:50;5.70;;;3.38;;
48853;SDS011;34673;52.808;17.856;2023-09-08T11:58:18;6.03;;;3.15;;
48853;SDS011;34673;52.808;17.856;2023-09-08T12:00:46;6.05;;;3.28;;
48853;SDS011;34673;52.808;17.856;2023-09-08T12:03:18;4.68;;;3.08;;
48853;SDS011;34673;52.808;17.856;2023-09-08T12:05:50;10.13;;;3.42;;
48853;SDS011;34673;52.808;17.856;2023-09-08T12:08:18;10.00;;;3.22;;
48853;SDS011;34673;52.808;17.856;2023-09-08T12:10:46;5.43;;;3.15;;
48853;SDS011;34673;52.808;17.856;2023-09-08T12:13:15;5.00;;;3.03;;
48853;SDS011;34673;52.808;17.856;2023-09-08T12:15:47;6.00;;;3.20;;
48853;SDS011;34673;52.808;17.856;2023-09-08T12:18:15;5.75;;;3.10;;
48853;SDS011;34673;52.808;17.856;2023-09-08T12:20:42;5.65;;;2.88;;
48853;SDS011;34673;52.808;17.856;2023-09-08T12:23:17;6.32;;;3.08;;
48853;SDS011;34673;52.808;17.856;2023-09-08T12:25:49;4.07;;;3.00;;
48853;SDS011;34673;52.808;17.856;2023-09-08T12:28:19;6.45;;;3.33;;
48853;SDS011;34673;52.808;17.856;2023-09-08T12:33:20;4.68;;;3.20;;
48853;SDS011;34673;52.808;17.856;2023-09-08T12:35:48;5.78;;;3.08;;
48853;SDS011;34673;52.808;17.856;2023-09-08T12:38:18;5.05;;;3.20;;
48853;SDS011;34673;52.808;17.856;2023-09-08T12:40:45;6.75;;;3.25;;
48853;SDS011;34673;52.808;17.856;2023-09-08T12:43:12;6.63;;;3.28;;
48853;SDS011;34673;52.808;17.856;2023-09-08T12:45:56;5.40;;;2.97;;
48853;SDS011;34673;52.808;17.856;2023-09-08T12:48:24;6.25;;;3.13;;
48853;SDS011;34673;52.808;17.856;2023-09-08T12:50:51;7.43;;;3.15;;
48853;SDS011;34673;52.808;17.856;2023-09-08T12:53:19;6.65;;;3.28;;
48853;SDS011;34673;52.808;17.856;2023-09-08T12:55:47;7.25;;;3.17;;
48853;SDS011;34673;52.808;17.856;2023-09-08T12:58:15;5.45;;;2.75;;
48853;SDS011;34673;52.808;17.856;2023-09-08T13:00:43;6.95;;;3.35;;
48853;SDS011;34673;52.808;17.856;2023-09-08T13:03:11;4.43;;;2.83;;
48853;SDS011;34673;52.808;17.856;2023-09-08T13:05:38;4.47;;;2.97;;
48853;SDS011;34673;52.808;17.856;2023-09-08T13:08:06;4.38;;;2.72;;
48853;SDS011;34673;52.808;17.856;2023-09-08T13:10:33;5.45;;;3.00;;
48853;SDS011;34673;52.808;17.856;2023-09-08T13:13:01;5.07;;;3.05;;
48853;SDS011;34673;52.808;17.856;2023-09-08T13:15:28;4.88;;;3.15;;
48853;SDS011;34673;52.808;17.856;2023-09-08T13:17:56;4.75;;;3.00;;
48853;SDS011;34673;52.808;17.856;2023-09-08T13:20:23;6.75;;;2.92;;
48853;SDS011;34673;52.808;17.856;2023-09-08T13:22:50;5.45;;;3.00;;
48853;SDS011;34673;52.808;17.856;2023-09-08T13:25:18;6.60;;;3.10;;
48853;SDS011;34673;52.808;17.856;2023-09-08T13:27:45;5.95;;;3.08;;
48853;SDS011;34673;52.808;17.856;2023-09-08T13:30:15;7.47;;;3.15;;
48853;SDS011;34673;52.808;17.856;2023-09-08T13:32:43;5.53;;;3.10;;
48853;SDS011;34673;52.808;17.856;2023-09-08T13:35:12;6.30;;;2.97;;
48853;SDS011;34673;52.808;17.856;2023-09-08T13:37:39;4.75;;;2.80;;
48853;SDS011;34673;52.808;17.856;2023-09-08T13:40:06;5.43;;;3.10;;
48853;SDS011;34673;52.808;17.856;2023-09-08T13:42:35;6.07;;;3.03;;
48853;SDS011;34673;52.808;17.856;2023-09-08T13:45:03;7.43;;;2.90;;
48853;SDS011;34673;52.808;17.856;2023-09-08T13:47:31;4.90;;;2.80;;
48853;SDS011;34673;52.808;17.856;2023-09-08T13:50:00;6.65;;;3.05;;
48853;SDS011;34673;52.808;17.856;2023-09-08T13:52:31;4.72;;;3.10;;
48853;SDS011;34673;52.808;17.856;2023-09-08T13:55:03;4.07;;;3.00;;
48853;SDS011;34673;52.808;17.856;2023-09-08T13:57:50;7.63;;;3.15;;
48853;SDS011;34673;52.808;17.856;2023-09-08T14:00:21;6.10;;;2.95;;
48853;SDS011;34673;52.808;17.856;2023-09-08T14:02:51;5.67;;;2.83;;
48853;SDS011;34673;52.808;17.856;2023-09-08T14:05:24;5.90;;;3.00;;
48853;SDS011;34673;52.808;17.856;2023-09-08T14:08:00;6.82;;;3.13;;
48853;SDS011;34673;52.808;17.856;2023-09-08T14:10:34;5.60;;;3.22;;
48853;SDS011;34673;52.808;17.856;2023-09-08T14:13:04;5.78;;;3.05;;
48853;SDS011;34673;52.808;17.856;2023-09-08T14:15:31;5.40;;;2.92;;
48853;SDS011;34673;52.808;17.856;2023-09-08T14:17:58;7.32;;;2.97;;
48853;SDS011;34673;52.808;17.856;2023-09-08T14:20:25;6.95;;;2.80;;
48853;SDS011;34673;52.808;17.856;2023-09-08T14:22:53;4.20;;;3.15;;
48853;SDS011;34673;52.808;17.856;2023-09-08T14:25:20;5.95;;;3.60;;
48853;SDS011;34673;52.808;17.856;2023-09-08T14:27:47;6.85;;;2.90;;
48853;SDS011;34673;52.808;17.856;2023-09-08T14:30:14;7.05;;;2.90;;
48853;SDS011;34673;52.808;17.856;2023-09-08T14:32:42;8.07;;;3.05;;
48853;SDS011;34673;52.808;17.856;2023-09-08T14:35:09;4.68;;;3.20;;
48853;SDS011;34673;52.808;17.856;2023-09-08T14:37:36;5.38;;;2.88;;
48853;SDS011;34673;52.808;17.856;2023-09-08T14:40:04;5.38;;;2.95;;
48853;SDS011;34673;52.808;17.856;2023-09-08T14:42:33;4.55;;;3.00;;
48853;SDS011;34673;52.808;17.856;2023-09-08T14:45:00;6.30;;;3.22;;